createdAt,value
2018-03-28T00:02:02.398Z,13.95
2018-03-28T00:04:30.721Z,15.23
2018-03-28T00:06:58.237Z,15.60
2018-03-28T00:09:26.534Z,15.32
2018-03-28T00:11:54.088Z,18.25
2018-03-28T00:14:21.606Z,15.65
2018-03-28T00:16:49.142Z,15.05
2018-03-28T00:19:16.697Z,15.82
2018-03-28T00:21:44.228Z,19.12
2018-03-28T00:24:11.757Z,15.02
2018-03-28T00:26:39.313Z,17.40
2018-03-28T00:29:06.848Z,22.10
2018-03-28T00:31:34.376Z,14.65
2018-03-28T00:34:01.916Z,15.25
2018-03-28T00:36:30.222Z,13.90
2018-03-28T00:38:57.735Z,15.73
2018-03-28T00:41:26.051Z,14.57
2018-03-28T00:43:53.582Z,13.57
2018-03-28T00:46:21.869Z,13.85
2018-03-28T00:48:49.416Z,12.05
2018-03-28T00:51:29.773Z,11.60
2018-03-28T00:53:58.088Z,16.20
2018-03-28T00:56:25.852Z,24.55
2018-03-28T00:58:53.382Z,11.38
2018-03-28T01:01:20.952Z,11.85
2018-03-28T01:03:48.471Z,10.35
2018-03-28T01:06:16.966Z,10.30
2018-03-28T01:08:45.290Z,14.75
2018-03-28T01:11:12.814Z,11.82
2018-03-28T01:13:41.108Z,12.82
2018-03-28T01:16:08.674Z,12.73
2018-03-28T01:18:36.192Z,15.52
2018-03-28T01:21:03.722Z,10.63
2018-03-28T01:23:31.278Z,21.37
2018-03-28T01:25:58.812Z,13.82
2018-03-28T01:28:26.332Z,12.73
2018-03-28T01:30:54.649Z,9.27
2018-03-28T01:33:22.184Z,10.60
2018-03-28T01:35:50.467Z,10.65
2018-03-28T01:38:18.038Z,12.18
2018-03-28T01:40:45.552Z,8.85
2018-03-28T01:43:13.094Z,11.82
2018-03-28T01:45:40.638Z,10.57
2018-03-28T01:48:08.160Z,8.32
2018-03-28T01:50:35.687Z,10.30
2018-03-28T01:53:03.244Z,7.18
2018-03-28T01:55:30.766Z,12.60
2018-03-28T01:57:58.314Z,11.57
2018-03-28T02:00:25.879Z,10.38
2018-03-28T02:02:53.403Z,12.35
2018-03-28T02:05:21.741Z,13.75
2018-03-28T02:07:49.278Z,13.05
2018-03-28T02:10:16.801Z,16.87
2018-03-28T02:12:45.101Z,17.80
2018-03-28T02:15:12.671Z,13.65
2018-03-28T02:17:40.240Z,17.30
2018-03-28T02:20:07.736Z,13.60
2018-03-28T02:22:36.054Z,14.00
2018-03-28T02:25:03.580Z,13.27
2018-03-28T02:27:31.862Z,14.15
2018-03-28T02:30:00.162Z,15.10
2018-03-28T02:32:27.708Z,11.05
2018-03-28T02:34:55.228Z,19.35
2018-03-28T02:37:22.763Z,14.20
2018-03-28T02:39:50.299Z,15.25
2018-03-28T02:42:17.822Z,15.68
2018-03-28T02:44:46.140Z,11.52
2018-03-28T02:47:13.653Z,12.68
2018-03-28T02:49:41.955Z,15.63
2018-03-28T02:52:09.506Z,16.73
2018-03-28T02:54:37.805Z,12.30
2018-03-28T02:57:05.349Z,12.27
2018-03-28T02:59:33.658Z,13.77
2018-03-28T03:02:01.194Z,13.98
2018-03-28T03:04:28.736Z,19.73
2018-03-28T03:06:56.297Z,14.68
2018-03-28T03:09:24.615Z,13.62
2018-03-28T03:11:52.165Z,16.98
2018-03-28T03:14:19.684Z,17.55
2018-03-28T03:16:47.998Z,14.20
2018-03-28T03:19:15.579Z,10.85
2018-03-28T03:21:43.114Z,12.02
2018-03-28T03:24:10.642Z,14.50
2018-03-28T03:26:38.942Z,12.95
2018-03-28T03:29:06.497Z,13.00
2018-03-28T03:31:34.022Z,15.13
2018-03-28T03:34:01.561Z,10.68
2018-03-28T03:36:29.097Z,9.90
2018-03-28T03:38:56.637Z,9.82
2018-03-28T03:41:24.168Z,9.90
2018-03-28T03:43:52.476Z,10.45
2018-03-28T03:46:20.003Z,11.18
2018-03-28T03:48:48.309Z,9.50
2018-03-28T03:51:15.862Z,8.63
2018-03-28T03:53:44.143Z,12.13
2018-03-28T03:56:11.694Z,9.50
2018-03-28T03:58:39.201Z,11.43
2018-03-28T04:01:06.728Z,11.00
2018-03-28T04:03:34.264Z,10.75
2018-03-28T04:06:02.579Z,8.95
2018-03-28T04:08:30.108Z,7.78
2018-03-28T04:10:57.649Z,6.75
2018-03-28T04:13:25.938Z,10.55
2018-03-28T04:15:53.454Z,7.72
2018-03-28T04:18:20.997Z,5.85
2018-03-28T04:20:48.509Z,7.50
2018-03-28T04:23:16.814Z,6.22
2018-03-28T04:25:44.341Z,5.37
2018-03-28T04:28:12.638Z,5.50
2018-03-28T04:30:40.176Z,6.43
2018-03-28T04:33:08.497Z,5.53
2018-03-28T04:35:36.016Z,5.10
2018-03-28T04:38:04.323Z,3.55
2018-03-28T04:40:31.836Z,2.55
2018-03-28T04:42:59.372Z,2.58
2018-03-28T04:45:26.917Z,1.50
2018-03-28T04:47:54.464Z,1.45
2018-03-28T04:50:21.997Z,5.47
2018-03-28T04:52:49.534Z,1.67
2018-03-28T04:55:17.850Z,0.93
2018-03-28T04:57:45.379Z,2.15
2018-03-28T05:00:13.701Z,1.20
2018-03-28T05:02:41.228Z,2.42
2018-03-28T05:05:09.628Z,2.28
2018-03-28T05:07:37.170Z,1.23
2018-03-28T05:10:04.705Z,2.55
2018-03-28T05:12:33.003Z,4.15
2018-03-28T05:15:00.524Z,0.98
2018-03-28T05:17:28.052Z,0.90
2018-03-28T05:19:55.596Z,1.10
2018-03-28T05:22:23.139Z,1.48
2018-03-28T05:24:50.672Z,1.30
2018-03-28T05:27:18.200Z,1.33
2018-03-28T05:29:45.713Z,1.50
2018-03-28T05:32:13.264Z,0.95
2018-03-28T05:34:41.558Z,2.25
2018-03-28T05:37:09.094Z,0.80
2018-03-28T05:39:37.396Z,0.73
2018-03-28T05:42:04.910Z,1.00
2018-03-28T05:44:32.463Z,1.55
2018-03-28T05:46:59.981Z,0.70
2018-03-28T05:49:27.534Z,0.90
2018-03-28T05:51:55.059Z,1.10
2018-03-28T05:54:23.391Z,1.50
2018-03-28T05:56:50.923Z,1.37
2018-03-28T05:59:18.459Z,1.62
2018-03-28T06:01:46.776Z,0.80
2018-03-28T06:04:14.366Z,1.65
2018-03-28T06:06:41.889Z,1.08
2018-03-28T06:09:10.345Z,1.98
2018-03-28T06:11:38.642Z,1.45
2018-03-28T06:14:06.180Z,1.50
2018-03-28T06:16:34.501Z,1.20
2018-03-28T06:19:02.026Z,0.85
2018-03-28T06:21:29.585Z,2.50
2018-03-28T06:23:57.330Z,1.77
2018-03-28T06:26:25.617Z,1.50
2018-03-28T06:28:53.924Z,1.85
2018-03-28T06:31:21.476Z,5.43
2018-03-28T06:33:49.033Z,2.35
2018-03-28T06:36:16.592Z,3.42
2018-03-28T06:38:44.126Z,1.70
2018-03-28T06:41:12.409Z,3.08
2018-03-28T06:43:40.712Z,3.83
2018-03-28T06:46:08.248Z,2.60
2018-03-28T06:48:36.524Z,2.33
2018-03-28T06:51:04.061Z,4.43
2018-03-28T06:53:32.415Z,2.17
2018-03-28T06:55:59.927Z,2.33
2018-03-28T06:58:27.460Z,2.85
2018-03-28T07:00:55.762Z,2.05
2018-03-28T07:03:23.290Z,4.82
2018-03-28T07:05:50.838Z,4.62
2018-03-28T07:08:18.352Z,2.62
2018-03-28T07:10:45.872Z,3.00
2018-03-28T07:13:14.174Z,2.30
2018-03-28T07:15:41.693Z,2.33
2018-03-28T07:18:09.240Z,8.52
2018-03-28T07:20:36.772Z,2.80
2018-03-28T07:23:04.315Z,1.75
2018-03-28T07:25:31.841Z,3.10
2018-03-28T07:28:00.165Z,2.65
2018-03-28T07:30:27.732Z,2.05
2018-03-28T07:32:55.281Z,1.85
2018-03-28T07:35:22.795Z,2.58
2018-03-28T07:37:51.087Z,1.87
2018-03-28T07:40:18.653Z,2.12
2018-03-28T07:42:46.189Z,1.87
2018-03-28T07:45:14.513Z,2.75
2018-03-28T07:47:42.055Z,6.47
2018-03-28T07:50:09.604Z,5.72
2018-03-28T07:52:37.138Z,3.33
2018-03-28T07:55:05.493Z,1.52
2018-03-28T07:57:33.039Z,5.37
2018-03-28T08:00:00.571Z,2.75
2018-03-28T08:02:28.117Z,2.78
2018-03-28T08:04:55.639Z,1.70
2018-03-28T08:07:23.174Z,1.25
2018-03-28T08:09:50.712Z,3.30
2018-03-28T08:12:18.261Z,2.78
2018-03-28T08:14:45.806Z,3.83
2018-03-28T08:17:13.347Z,1.08
2018-03-28T08:19:40.870Z,3.67
2018-03-28T08:22:08.411Z,2.78
2018-03-28T08:24:36.720Z,3.42
2018-03-28T08:27:04.247Z,1.37
2018-03-28T08:29:31.801Z,1.92
2018-03-28T08:31:59.340Z,2.72
2018-03-28T08:34:26.875Z,3.70
2018-03-28T08:36:54.412Z,3.25
2018-03-28T08:39:21.950Z,2.55
2018-03-28T08:41:49.514Z,1.12
2018-03-28T08:44:17.072Z,2.65
2018-03-28T08:46:44.615Z,1.10
2018-03-28T08:49:12.147Z,1.00
2018-03-28T08:51:40.466Z,3.35
2018-03-28T08:54:08.021Z,3.12
2018-03-28T08:56:35.558Z,1.73
2018-03-28T08:59:03.096Z,1.52
2018-03-28T09:01:30.640Z,3.10
2018-03-28T09:03:58.180Z,1.90
2018-03-28T09:06:25.758Z,2.10
2018-03-28T09:08:53.295Z,1.63
2018-03-28T09:11:20.822Z,1.10
2018-03-28T09:13:48.356Z,2.03
2018-03-28T09:16:16.648Z,1.10
2018-03-28T09:18:44.225Z,9.30
2018-03-28T09:21:11.781Z,1.23
2018-03-28T09:23:39.340Z,1.25
2018-03-28T09:26:06.944Z,0.80
2018-03-28T09:28:34.439Z,1.20
2018-03-28T09:31:02.751Z,1.10
2018-03-28T09:33:30.301Z,0.93
2018-03-28T09:35:57.838Z,3.13
2018-03-28T09:38:25.380Z,0.77
2018-03-28T09:40:52.925Z,0.87
2018-03-28T09:43:20.470Z,0.70
2018-03-28T09:45:48.012Z,0.60
2018-03-28T09:48:15.538Z,0.90
2018-03-28T09:50:43.081Z,0.77
2018-03-28T09:53:10.631Z,0.67
2018-03-28T09:55:38.197Z,1.40
2018-03-28T09:58:06.489Z,0.70
2018-03-28T10:00:34.015Z,2.60
2018-03-28T10:03:07.186Z,0.60
2018-03-28T10:05:38.616Z,0.50
2018-03-28T10:08:06.164Z,0.60
2018-03-28T10:10:33.682Z,0.70
2018-03-28T10:13:01.218Z,0.60
2018-03-28T10:15:28.759Z,0.67
2018-03-28T10:17:56.320Z,0.50
2018-03-28T10:20:23.845Z,1.20
2018-03-28T10:22:51.395Z,0.80
2018-03-28T10:25:19.715Z,0.50
2018-03-28T10:27:47.247Z,0.73
2018-03-28T10:30:14.811Z,1.10
2018-03-28T10:32:42.347Z,2.20
2018-03-28T10:35:10.686Z,0.57
2018-03-28T10:37:38.204Z,0.67
2018-03-28T10:40:05.773Z,0.93
2018-03-28T10:42:33.320Z,0.70
2018-03-28T10:45:00.903Z,2.77
2018-03-28T10:47:28.451Z,1.90
2018-03-28T10:49:55.979Z,0.50
2018-03-28T10:52:24.301Z,0.40
2018-03-28T10:54:51.846Z,0.40
2018-03-28T10:57:19.417Z,1.47
2018-03-28T10:59:46.934Z,0.50
2018-03-28T11:02:15.251Z,2.33
2018-03-28T11:04:42.790Z,0.40
2018-03-28T11:07:10.345Z,1.67
2018-03-28T11:09:37.900Z,0.50
2018-03-28T11:12:05.461Z,0.80
2018-03-28T11:14:33.007Z,0.50
2018-03-28T11:17:01.290Z,1.17
2018-03-28T11:19:29.592Z,0.50
2018-03-28T11:21:57.114Z,0.50
2018-03-28T11:24:25.420Z,0.50
2018-03-28T11:26:53.038Z,0.50
2018-03-28T11:29:20.580Z,1.27
2018-03-28T11:31:48.099Z,0.70
2018-03-28T11:34:15.650Z,0.50
2018-03-28T11:36:43.170Z,0.50
2018-03-28T11:39:10.726Z,0.70
2018-03-28T11:41:39.066Z,1.03
2018-03-28T11:44:06.584Z,1.43
2018-03-28T11:46:34.900Z,0.50
2018-03-28T11:49:02.420Z,0.60
2018-03-28T11:51:30.721Z,0.60
2018-03-28T11:53:58.248Z,0.50
2018-03-28T11:56:26.556Z,0.97
2018-03-28T11:58:54.077Z,1.43
2018-03-28T12:01:21.628Z,0.83
2018-03-28T12:03:49.207Z,0.60
2018-03-28T12:06:17.536Z,2.90
2018-03-28T12:08:45.063Z,2.70
2018-03-28T12:11:12.629Z,1.53
2018-03-28T12:13:40.262Z,2.10
2018-03-28T12:16:08.586Z,0.70
2018-03-28T12:18:36.108Z,0.70
2018-03-28T12:21:05.255Z,2.63
2018-03-28T12:23:32.806Z,1.13
2018-03-28T12:26:00.339Z,1.00
2018-03-28T12:28:27.873Z,0.83
2018-03-28T12:30:56.166Z,3.60
2018-03-28T12:33:23.720Z,0.80
2018-03-28T12:35:52.010Z,0.93
2018-03-28T12:38:19.533Z,1.00
2018-03-28T12:40:47.090Z,0.83
2018-03-28T12:43:14.631Z,0.97
2018-03-28T12:45:42.174Z,1.00
2018-03-28T12:48:09.710Z,1.67
2018-03-28T12:50:37.312Z,1.13
2018-03-28T12:53:04.847Z,1.10
2018-03-28T12:55:32.378Z,1.20
2018-03-28T12:57:59.917Z,1.00
2018-03-28T13:00:28.233Z,3.43
2018-03-28T13:02:55.784Z,2.03
2018-03-28T13:05:23.369Z,1.53
2018-03-28T13:07:51.737Z,1.00
2018-03-28T13:10:19.998Z,0.80
2018-03-28T13:12:47.542Z,1.43
2018-03-28T13:15:15.845Z,1.00
2018-03-28T13:17:43.357Z,0.90
2018-03-28T13:20:11.146Z,1.60
2018-03-28T13:22:38.681Z,2.03
2018-03-28T13:25:06.217Z,1.63
2018-03-28T13:27:33.752Z,1.40
2018-03-28T13:30:01.302Z,1.10
2018-03-28T13:32:28.815Z,1.83
2018-03-28T13:34:56.350Z,1.53
2018-03-28T13:37:23.888Z,1.53
2018-03-28T13:39:51.446Z,1.57
2018-03-28T13:42:18.972Z,2.30
2018-03-28T13:44:47.258Z,6.03
2018-03-28T13:47:14.815Z,1.40
2018-03-28T13:49:42.343Z,0.80
2018-03-28T13:52:09.885Z,0.97
2018-03-28T13:54:37.450Z,1.23
2018-03-28T13:57:04.996Z,1.23
2018-03-28T13:59:32.516Z,8.83
2018-03-28T14:02:00.075Z,1.30
2018-03-28T14:04:27.609Z,1.00
2018-03-28T14:06:55.917Z,2.27
2018-03-28T14:09:23.480Z,3.37
2018-03-28T14:11:51.019Z,1.67
2018-03-28T14:14:18.566Z,2.00
2018-03-28T14:16:46.883Z,2.20
2018-03-28T14:19:14.416Z,2.60
2018-03-28T14:21:42.003Z,1.20
2018-03-28T14:24:10.269Z,2.00
2018-03-28T14:26:37.804Z,1.10
2018-03-28T14:29:06.126Z,1.10
2018-03-28T14:31:33.656Z,1.57
2018-03-28T14:34:01.175Z,1.00
2018-03-28T14:36:28.710Z,1.13
2018-03-28T14:38:56.230Z,1.00
2018-03-28T14:41:24.645Z,1.10
2018-03-28T14:43:52.172Z,0.70
2018-03-28T14:46:19.724Z,0.77
2018-03-28T14:48:47.252Z,0.90
2018-03-28T14:51:14.809Z,1.73
2018-03-28T14:53:42.328Z,1.23
2018-03-28T14:56:09.848Z,1.97
2018-03-28T14:58:38.165Z,0.93
2018-03-28T15:01:05.714Z,0.90
2018-03-28T15:03:33.266Z,1.20
2018-03-28T15:06:00.799Z,1.93
2018-03-28T15:08:29.117Z,1.47
2018-03-28T15:10:56.675Z,0.97
2018-03-28T15:13:24.255Z,2.80
2018-03-28T15:15:51.976Z,2.73
2018-03-28T15:18:19.522Z,0.90
2018-03-28T15:20:47.826Z,0.97
2018-03-28T15:23:15.364Z,1.20
2018-03-28T15:25:42.919Z,0.90
2018-03-28T15:28:11.206Z,1.10
2018-03-28T15:30:38.769Z,1.43
2018-03-28T15:33:06.338Z,10.43
2018-03-28T15:35:33.886Z,1.27
2018-03-28T15:38:01.430Z,1.63
2018-03-28T15:40:29.756Z,1.77
2018-03-28T15:42:57.305Z,3.87
2018-03-28T15:45:24.857Z,1.47
2018-03-28T15:47:52.404Z,1.20
2018-03-28T15:50:19.944Z,4.57
2018-03-28T15:52:48.250Z,1.20
2018-03-28T15:55:15.779Z,2.30
2018-03-28T15:57:44.089Z,1.40
2018-03-28T16:00:11.604Z,2.60
2018-03-28T16:02:39.156Z,1.73
2018-03-28T16:05:06.692Z,1.33
2018-03-28T16:07:34.241Z,1.10
2018-03-28T16:10:01.772Z,4.50
2018-03-28T16:12:29.330Z,1.43
2018-03-28T16:14:56.879Z,0.90
2018-03-28T16:17:24.427Z,1.03
2018-03-28T16:19:52.718Z,2.73
2018-03-28T16:22:20.243Z,1.53
2018-03-28T16:24:47.808Z,1.60
2018-03-28T16:27:15.320Z,3.00
2018-03-28T16:29:42.862Z,1.90
2018-03-28T16:32:10.392Z,3.80
2018-03-28T16:34:40.471Z,1.80
2018-03-28T16:37:08.005Z,1.83
2018-03-28T16:39:35.563Z,6.80
2018-03-28T16:42:03.100Z,3.93
2018-03-28T16:44:30.636Z,1.83
2018-03-28T16:46:58.666Z,2.73
2018-03-28T16:49:26.198Z,2.20
2018-03-28T16:51:53.741Z,4.80
2018-03-28T16:54:22.018Z,2.40
2018-03-28T16:56:50.349Z,4.13
2018-03-28T16:59:18.644Z,1.70
2018-03-28T17:01:46.187Z,4.40
2018-03-28T17:04:13.704Z,4.20
2018-03-28T17:06:41.209Z,1.73
2018-03-28T17:09:08.752Z,3.13
2018-03-28T17:11:36.312Z,1.80
2018-03-28T17:14:03.891Z,4.20
2018-03-28T17:16:31.413Z,3.40
2018-03-28T17:18:58.962Z,3.50
2018-03-28T17:21:26.497Z,3.27
2018-03-28T17:23:54.812Z,3.13
2018-03-28T17:26:23.113Z,2.57
2018-03-28T17:28:50.638Z,2.60
2018-03-28T17:31:18.181Z,2.70
2018-03-28T17:33:46.467Z,2.20
2018-03-28T17:36:14.060Z,2.80
2018-03-28T17:38:41.564Z,3.87
2018-03-28T17:41:09.894Z,7.50
2018-03-28T17:43:37.434Z,8.77
2018-03-28T17:46:04.976Z,6.00
2018-03-28T17:48:33.279Z,3.97
2018-03-28T17:51:00.838Z,9.53
2018-03-28T17:53:28.401Z,5.10
2018-03-28T17:55:55.942Z,7.27
2018-03-28T17:58:23.492Z,5.87
2018-03-28T18:00:51.031Z,8.07
2018-03-28T18:03:19.342Z,5.43
2018-03-28T18:05:46.872Z,6.40
2018-03-28T18:08:15.196Z,6.93
2018-03-28T18:10:42.721Z,7.80
2018-03-28T18:13:10.287Z,17.90
2018-03-28T18:15:38.634Z,9.25
2018-03-28T18:18:06.223Z,6.45
2018-03-28T18:20:33.763Z,8.48
2018-03-28T18:23:02.080Z,7.00
2018-03-28T18:25:29.636Z,9.43
2018-03-28T18:27:57.187Z,8.38
2018-03-28T18:30:24.738Z,8.30
2018-03-28T18:32:52.418Z,12.05
2018-03-28T18:35:19.970Z,7.97
2018-03-28T18:37:47.522Z,7.35
2018-03-28T18:40:15.091Z,10.02
2018-03-28T18:42:42.627Z,5.60
2018-03-28T18:45:10.910Z,5.85
2018-03-28T18:47:38.477Z,5.43
2018-03-28T18:50:06.034Z,9.52
2018-03-28T18:52:33.592Z,6.87
2018-03-28T18:55:01.125Z,7.85
2018-03-28T18:57:29.436Z,8.82
2018-03-28T18:59:56.983Z,10.48
2018-03-28T19:02:24.513Z,10.68
2018-03-28T19:04:52.053Z,6.07
2018-03-28T19:07:19.594Z,6.70
2018-03-28T19:09:47.160Z,6.45
2018-03-28T19:12:14.715Z,5.65
2018-03-28T19:14:42.286Z,11.05
2018-03-28T19:17:09.815Z,7.05
2018-03-28T19:19:37.340Z,6.30
2018-03-28T19:22:05.664Z,5.55
2018-03-28T19:24:33.207Z,10.45
2018-03-28T19:27:00.766Z,13.80
2018-03-28T19:29:28.309Z,7.95
2018-03-28T19:31:55.858Z,10.85
2018-03-28T19:34:24.158Z,5.93
2018-03-28T19:36:51.723Z,5.30
2018-03-28T19:39:19.266Z,7.00
2018-03-28T19:41:46.810Z,8.95
2018-03-28T19:44:15.138Z,3.60
2018-03-28T19:46:42.678Z,4.75
2018-03-28T19:49:10.225Z,10.93
2018-03-28T19:51:37.763Z,8.50
2018-03-28T19:54:06.091Z,13.13
2018-03-28T19:56:34.010Z,9.63
2018-03-28T19:59:02.341Z,10.85
2018-03-28T20:01:29.891Z,6.30
2018-03-28T20:03:57.452Z,7.00
2018-03-28T20:06:24.992Z,5.93
2018-03-28T20:08:52.601Z,23.45
2018-03-28T20:11:20.173Z,31.65
2018-03-28T20:13:48.481Z,14.45
2018-03-28T20:16:16.023Z,10.93
2018-03-28T20:18:44.325Z,10.45
2018-03-28T20:21:12.653Z,8.48
2018-03-28T20:23:40.183Z,11.35
2018-03-28T20:26:07.733Z,7.18
2018-03-28T20:28:35.257Z,6.90
2018-03-28T20:31:03.547Z,5.85
2018-03-28T20:33:31.108Z,9.50
2018-03-28T20:35:58.633Z,11.38
2018-03-28T20:38:26.198Z,13.70
2018-03-28T20:40:53.726Z,7.57
2018-03-28T20:43:21.271Z,12.45
2018-03-28T20:45:48.812Z,8.68
2018-03-28T20:48:16.375Z,10.25
2018-03-28T20:50:43.912Z,8.73
2018-03-28T20:53:12.195Z,12.80
2018-03-28T20:55:39.741Z,9.10
2018-03-28T20:58:08.030Z,11.65
2018-03-28T21:00:35.580Z,7.95
2018-03-28T21:03:03.131Z,16.15
2018-03-28T21:05:31.444Z,20.65
2018-03-28T21:07:58.982Z,10.63
2018-03-28T21:10:26.535Z,10.30
2018-03-28T21:12:54.849Z,8.95
2018-03-28T21:15:22.400Z,13.80
2018-03-28T21:17:50.726Z,16.48
2018-03-28T21:20:18.267Z,11.60
2018-03-28T21:22:45.834Z,11.32
2018-03-28T21:25:13.379Z,10.27
2018-03-28T21:27:40.938Z,10.63
2018-03-28T21:30:08.481Z,7.45
2018-03-28T21:32:36.022Z,9.80
2018-03-28T21:35:03.558Z,10.88
2018-03-28T21:37:31.870Z,5.20
2018-03-28T21:39:59.392Z,4.20
2018-03-28T21:42:27.707Z,7.57
2018-03-28T21:44:55.255Z,3.77
2018-03-28T21:47:22.792Z,2.30
2018-03-28T21:49:51.128Z,2.17
2018-03-28T21:52:18.673Z,1.92
2018-03-28T21:54:46.237Z,1.98
2018-03-28T21:57:13.779Z,1.58
2018-03-28T21:59:42.100Z,1.40
2018-03-28T22:02:09.613Z,1.45
2018-03-28T22:04:37.140Z,1.30
2018-03-28T22:07:05.455Z,1.08
2018-03-28T22:09:32.999Z,0.95
2018-03-28T22:12:00.556Z,1.50
2018-03-28T22:14:28.105Z,1.65
2018-03-28T22:16:55.616Z,1.00
2018-03-28T22:19:23.180Z,1.25
2018-03-28T22:21:50.802Z,1.95
2018-03-28T22:24:18.348Z,0.90
2018-03-28T22:26:45.938Z,0.80
2018-03-28T22:29:13.480Z,2.83
2018-03-28T22:31:41.020Z,1.00
2018-03-28T22:34:08.563Z,0.80
2018-03-28T22:36:36.841Z,0.70
2018-03-28T22:39:05.154Z,0.80
2018-03-28T22:41:32.693Z,0.80
2018-03-28T22:44:00.241Z,0.90
2018-03-28T22:46:28.549Z,2.50
2018-03-28T22:48:56.068Z,1.10
2018-03-28T22:51:24.397Z,0.55
2018-03-28T22:53:51.910Z,0.52
2018-03-28T22:56:20.217Z,1.50
2018-03-28T22:58:47.752Z,0.70
2018-03-28T23:01:16.052Z,0.50
2018-03-28T23:03:44.336Z,0.60
2018-03-28T23:06:12.035Z,0.70
2018-03-28T23:08:39.549Z,1.17
2018-03-28T23:11:07.090Z,0.50
2018-03-28T23:13:35.374Z,0.50
2018-03-28T23:16:02.895Z,0.50
2018-03-28T23:18:30.429Z,0.40
2018-03-28T23:20:57.949Z,0.50
2018-03-28T23:23:25.500Z,0.40
2018-03-28T23:25:53.801Z,0.40
2018-03-28T23:28:21.348Z,0.40
2018-03-28T23:30:48.877Z,0.43
2018-03-28T23:33:16.435Z,0.70
2018-03-28T23:35:44.743Z,0.40
2018-03-28T23:38:12.262Z,0.50
2018-03-28T23:40:39.820Z,0.40
2018-03-28T23:43:07.348Z,0.50
2018-03-28T23:45:34.904Z,0.40
2018-03-28T23:48:02.426Z,0.40
2018-03-28T23:50:29.988Z,0.40
2018-03-28T23:52:58.272Z,0.40
2018-03-28T23:55:25.822Z,0.45
2018-03-28T23:57:53.356Z,0.40
